Agua Dulce, California
Current Conditions -  °F | °C
As of 4:56 PM on Wednesday 22 Oct 2014 (Local Time) from KWJF Reporting Station
Clear Clear  
Wind Chill: 80°   Ceiling: Unl
Heat Index: 80°   Visibility: 10mi
Dew Point: 30°   Wind: 0mph
Humidity: 16%   Direction: NA
Pressure: 29.99"   Gusts: NA
Location:  34.513°N, 118.402°W
Report Text: KWJF 222356Z 00000KT 10SM CLR 27/M01 A2999 RMK AO2 SLP146 T02671011 10272 20189 56010
Loading
Personal Weather Stations






























Interactive Weather Map
Tropical Storm Tracking
New forecast layout! Learn more

10-Day Weather Forecast

Advertisements
Track Severe Weather on mobile